Time;durP1;ratioP1;P1;durP2;ratioP2;P2;SDS_P1;SDS_P2;PMS_P1;PMS_P2;Temp;Humidity;BMP_temperature;BMP_pressure;BME280_temperature;BME280_humidity;BME280_pressure;Samples;Min_cycle;Max_cycle;Signal;HPM_P1;HPM_P2
2023/09/25 00:02:26;;;;;;;2.38;1.10;;;;;;;22.48;100.00;100328.28;5070657;28;20219;-75
2023/09/25 00:04:53;;;;;;;1.85;1.10;;;;;;;22.42;100.00;100298.53;5070466;28;20728;-75
2023/09/25 00:07:20;;;;;;;2.35;1.30;;;;;;;22.59;100.00;100331.47;5035553;28;20230;-76
2023/09/25 00:09:48;;;;;;;3.67;1.63;;;;;;;22.61;100.00;100331.44;5070741;28;20230;-76
2023/09/25 00:12:15;;;;;;;1.73;1.08;;;;;;;22.46;100.00;100329.25;5071096;28;20226;-75
2023/09/25 00:14:41;;;;;;;1.42;1.05;;;;;;;22.44;100.00;100334.56;5070706;28;20227;-76
2023/09/25 00:17:08;;;;;;;2.22;1.33;;;;;;;22.46;100.00;100339.81;5073847;28;20202;-75
2023/09/25 00:19:35;;;;;;;3.50;1.60;;;;;;;22.37;100.00;100337.41;5074334;28;20202;-82
2023/09/25 00:22:02;;;;;;;1.85;1.35;;;;;;;22.16;100.00;100300.16;5075587;28;20198;-76
2023/09/25 00:24:29;;;;;;;3.15;1.30;;;;;;;22.45;100.00;100340.72;5075098;28;20716;-76
2023/09/25 00:26:57;;;;;;;3.60;1.80;;;;;;;22.55;100.00;100339.53;5056585;28;20674;-75
2023/09/25 00:29:24;;;;;;;1.80;1.13;;;;;;;22.26;100.00;100326.31;5074926;28;20222;-75
2023/09/25 00:31:51;;;;;;;2.08;1.45;;;;;;;22.41;100.00;100353.16;5074474;28;20243;-76
2023/09/25 00:34:18;;;;;;;2.20;1.10;;;;;;;22.44;100.00;100360.16;5074969;28;20659;-76
2023/09/25 00:36:45;;;;;;;1.50;1.00;;;;;;;22.43;100.00;100361.91;5074887;28;20647;-75
2023/09/25 00:39:11;;;;;;;2.13;1.25;;;;;;;22.31;100.00;100364.03;5074822;28;20241;-76
2023/09/25 00:41:38;;;;;;;2.08;1.00;;;;;;;22.19;100.00;100368.75;5039894;28;20198;-76
2023/09/25 00:44:06;;;;;;;3.17;1.63;;;;;;;22.03;100.00;100366.59;5036203;28;20200;-73
2023/09/25 00:46:33;;;;;;;1.80;1.25;;;;;;;21.75;100.00;100371.69;5024340;28;20214;-76
2023/09/25 00:49:00;;;;;;;3.10;1.17;;;;;;;21.76;100.00;100379.56;5070352;28;20222;-76
2023/09/25 00:51:27;;;;;;;3.65;1.48;;;;;;;21.69;100.00;100374.47;5074418;28;20207;-76
2023/09/25 00:53:56;;;;;;;3.90;1.60;;;;;;;21.56;100.00;100349.31;5074366;28;20246;-75
2023/09/25 00:56:23;;;;;;;3.00;1.27;;;;;;;21.51;100.00;100367.88;5074116;28;20195;-76
2023/09/25 00:58:51;;;;;;;3.05;1.52;;;;;;;21.57;100.00;100388.88;5074179;28;20213;-75
2023/09/25 01:01:20;;;;;;;0.95;0.85;;;;;;;21.60;100.00;100382.63;5074031;28;20701;-75
2023/09/25 01:03:47;;;;;;;3.97;1.77;;;;;;;21.48;100.00;100382.94;5074347;28;20195;-75
2023/09/25 01:06:14;;;;;;;4.20;2.03;;;;;;;21.40;100.00;100387.56;5074089;28;20203;-75
2023/09/25 01:08:41;;;;;;;3.47;1.70;;;;;;;21.29;100.00;100371.13;5074290;28;20233;-75
2023/09/25 01:11:08;;;;;;;3.15;1.90;;;;;;;20.97;100.00;100332.28;5074232;28;20621;-76
2023/09/25 01:13:35;;;;;;;2.53;1.30;;;;;;;21.25;100.00;100391.41;5074004;28;20245;-76
2023/09/25 01:16:03;;;;;;;4.47;1.55;;;;;;;20.79;100.00;100359.94;5074489;28;20199;-75
2023/09/25 01:18:31;;;;;;;2.50;1.40;;;;;;;21.01;100.00;100387.53;5073765;28;20653;-75
2023/09/25 01:20:58;;;;;;;1.52;1.33;;;;;;;20.87;100.00;100386.13;5055374;28;20195;-75
2023/09/25 01:23:26;;;;;;;5.35;1.42;;;;;;;20.85;100.00;100388.78;5074079;28;20206;-75
2023/09/25 01:25:53;;;;;;;3.58;1.60;;;;;;;20.89;100.00;100387.81;5073808;28;20210;-75
2023/09/25 01:28:20;;;;;;;2.22;1.35;;;;;;;20.89;100.00;100386.94;5073046;28;20237;-75
2023/09/25 01:30:47;;;;;;;7.10;1.58;;;;;;;20.79;100.00;100381.03;5073559;28;20206;-75
2023/09/25 01:33:13;;;;;;;3.65;1.67;;;;;;;20.85;100.00;100401.97;5073574;28;20643;-75
2023/09/25 01:35:41;;;;;;;4.72;1.45;;;;;;;20.78;100.00;100392.44;5038432;28;20194;-75
2023/09/25 01:38:08;;;;;;;2.88;1.60;;;;;;;20.68;100.00;100377.75;5073951;28;20203;-75
2023/09/25 01:40:36;;;;;;;2.72;1.73;;;;;;;20.88;100.00;100396.63;5038534;28;20203;-75
2023/09/25 01:43:03;;;;;;;1.50;1.13;;;;;;;20.76;100.00;100399.53;5073497;28;20199;-74
2023/09/25 01:45:30;;;;;;;5.20;1.50;;;;;;;20.68;100.00;100393.56;5072942;28;20195;-75
2023/09/25 01:47:57;;;;;;;1.67;1.25;;;;;;;20.54;100.00;100378.03;5073116;28;20725;-74
2023/09/25 01:50:26;;;;;;;3.45;1.55;;;;;;;20.69;100.00;100398.78;5073267;28;20302;-74
2023/09/25 01:52:56;;;;;;;1.85;1.20;;;;;;;20.63;100.00;100409.47;5073870;28;20282;-75
2023/09/25 01:55:23;;;;;;;2.55;1.63;;;;;;;20.56;100.00;100399.94;5072939;28;20210;-75
2023/09/25 01:57:51;;;;;;;2.70;1.42;;;;;;;20.67;100.00;100403.22;5038073;28;20582;-74
2023/09/25 02:00:18;;;;;;;2.40;1.23;;;;;;;20.58;100.00;100402.56;5072930;28;20207;-75
2023/09/25 02:02:46;;;;;;;2.58;1.30;;;;;;;20.45;100.00;100390.50;5034921;28;20253;-75
2023/09/25 02:05:13;;;;;;;1.60;1.10;;;;;;;20.55;100.00;100407.88;5061388;28;20264;-75
2023/09/25 02:07:40;;;;;;;3.20;1.55;;;;;;;20.56;100.00;100404.34;5073266;28;20583;-75
2023/09/25 02:10:08;;;;;;;2.40;1.23;;;;;;;20.51;100.00;100399.16;5072893;28;20643;-75
2023/09/25 02:12:35;;;;;;;4.10;1.98;;;;;;;20.46;100.00;100400.16;5038144;28;20207;-74
2023/09/25 02:15:05;;;;;;;1.95;1.20;;;;;;;20.37;100.00;100376.66;5072692;28;20230;-74
2023/09/25 02:17:32;;;;;;;2.92;1.30;;;;;;;20.41;100.00;100402.00;5072781;28;20646;-75
2023/09/25 02:20:12;;;;;;;2.70;1.38;;;;;;;20.32;100.00;100399.56;5034547;28;20203;-75
2023/09/25 02:22:39;;;;;;;1.73;1.02;;;;;;;20.30;100.00;100401.38;5066227;28;20201;-75
2023/09/25 02:25:06;;;;;;;2.58;1.20;;;;;;;20.50;100.00;100407.09;5072580;28;20227;-75
2023/09/25 02:27:33;;;;;;;2.67;1.20;;;;;;;20.45;100.00;100395.78;5073052;28;20202;-75
2023/09/25 02:30:00;;;;;;;3.72;1.30;;;;;;;20.41;100.00;100404.63;5071864;28;20222;-75
2023/09/25 02:32:28;;;;;;;2.85;1.20;;;;;;;20.44;100.00;100405.44;5072385;28;20659;-75
2023/09/25 02:34:55;;;;;;;3.13;1.40;;;;;;;20.26;100.00;100404.00;5072561;28;20203;-74
2023/09/25 02:37:21;;;;;;;3.92;1.65;;;;;;;20.33;100.00;100402.19;5072858;28;20214;-74
2023/09/25 02:39:48;;;;;;;3.00;1.58;;;;;;;20.37;100.00;100398.56;5071459;28;20594;-75
2023/09/25 02:42:15;;;;;;;2.63;1.30;;;;;;;20.37;100.00;100403.00;5072670;28;20206;-74
2023/09/25 02:44:42;;;;;;;2.83;1.55;;;;;;;20.34;100.00;100403.91;5071883;28;20199;-74
2023/09/25 02:47:09;;;;;;;3.83;1.40;;;;;;;20.34;100.00;100413.56;5071908;28;20199;-74
2023/09/25 02:49:37;;;;;;;4.03;1.48;;;;;;;20.41;100.00;100415.19;5066602;28;20223;-74
2023/09/25 02:52:04;;;;;;;2.55;1.40;;;;;;;20.37;100.00;100424.91;5069756;28;20302;-74
2023/09/25 02:54:30;;;;;;;3.95;1.30;;;;;;;20.43;100.00;100418.66;5072283;28;20221;-75
2023/09/25 02:56:57;;;;;;;2.95;1.48;;;;;;;20.35;100.00;100428.47;5072006;28;20596;-75
2023/09/25 02:59:24;;;;;;;4.15;1.92;;;;;;;20.33;100.00;100423.25;5071968;28;20630;-75
2023/09/25 03:01:51;;;;;;;2.70;1.10;;;;;;;20.31;100.00;100403.09;5072095;28;20252;-74
2023/09/25 03:04:17;;;;;;;2.28;1.02;;;;;;;19.85;100.00;100332.88;5072199;28;20202;-74
2023/09/25 03:06:46;;;;;;;3.53;1.55;;;;;;;20.37;100.00;100418.81;5071681;28;20264;-74
2023/09/25 03:09:12;;;;;;;2.58;1.58;;;;;;;20.37;100.00;100424.91;5071690;28;20233;-74
2023/09/25 03:11:39;;;;;;;3.47;1.65;;;;;;;20.42;100.00;100422.19;5071301;28;20438;-74
2023/09/25 03:14:06;;;;;;;3.33;1.30;;;;;;;20.57;100.00;100435.94;5071755;28;20218;-74
2023/09/25 03:16:33;;;;;;;2.53;1.30;;;;;;;20.54;100.00;100448.31;5071506;28;20203;-74
2023/09/25 03:18:59;;;;;;;2.90;1.25;;;;;;;20.60;100.00;100448.19;5071267;28;20210;-74
2023/09/25 03:21:26;;;;;;;2.15;1.33;;;;;;;20.49;100.00;100426.44;5071953;28;20210;-73
2023/09/25 03:23:54;;;;;;;2.20;1.00;;;;;;;20.73;100.00;100449.66;5070694;28;20525;-72
2023/09/25 03:26:21;;;;;;;2.50;1.30;;;;;;;20.72;100.00;100450.56;5035877;28;20615;-74
2023/09/25 03:28:50;;;;;;;3.53;1.38;;;;;;;20.62;100.00;100415.63;5071634;28;20322;-73
2023/09/25 03:31:16;;;;;;;3.80;1.35;;;;;;;20.75;100.00;100450.50;5071530;28;20195;-73
2023/09/25 03:33:45;;;;;;;3.13;1.23;;;;;;;20.95;100.00;100450.06;5071261;28;20198;-74
2023/09/25 03:36:13;;;;;;;3.97;1.77;;;;;;;20.85;100.00;100459.97;5075941;28;20213;-74
2023/09/25 03:38:40;;;;;;;2.28;1.10;;;;;;;20.81;100.00;100466.19;5071643;28;20202;-74
2023/09/25 03:41:08;;;;;;;2.45;1.10;;;;;;;21.06;100.00;100470.03;5067709;28;20694;-74
2023/09/25 03:43:35;;;;;;;3.10;1.35;;;;;;;21.02;100.00;100468.38;5049239;28;20263;-74
2023/09/25 03:46:02;;;;;;;9.10;2.80;;;;;;;21.14;100.00;100473.44;5070960;28;20203;-74
2023/09/25 03:48:29;;;;;;;2.92;1.20;;;;;;;21.10;100.00;100479.66;5071505;28;20226;-74
2023/09/25 03:50:56;;;;;;;2.42;1.15;;;;;;;21.07;100.00;100477.06;5070758;28;20715;-74
2023/09/25 03:53:22;;;;;;;1.65;1.45;;;;;;;21.12;100.00;100488.41;5071689;28;20195;-75
2023/09/25 03:55:49;;;;;;;3.08;1.17;;;;;;;21.00;100.00;100480.72;5070708;28;20639;-74
2023/09/25 03:58:17;;;;;;;2.45;1.27;;;;;;;20.97;100.00;100483.44;5070697;28;20194;-78
2023/09/25 04:00:44;;;;;;;6.85;1.58;;;;;;;20.85;100.00;100459.09;5071090;28;20587;-76
2023/09/25 04:03:11;;;;;;;2.58;1.20;;;;;;;20.99;100.00;100489.53;5070244;28;20203;-74
2023/09/25 04:05:38;;;;;;;6.82;2.05;;;;;;;20.99;100.00;100473.72;5027488;28;20234;-73
2023/09/25 04:08:05;;;;;;;3.15;1.55;;;;;;;21.24;100.00;100500.47;5071661;28;20246;-76
2023/09/25 04:10:32;;;;;;;4.78;1.45;;;;;;;21.18;100.00;100498.84;5071136;28;20226;-78
2023/09/25 04:12:59;;;;;;;3.47;1.30;;;;;;;21.28;100.00;100507.41;5071227;28;20195;-78
2023/09/25 04:15:31;;;;;;;3.10;1.27;;;;;;;21.58;100.00;100500.59;5035358;28;20231;-77
2023/09/25 04:17:58;;;;;;;2.80;1.33;;;;;;;21.17;100.00;100468.09;5070514;28;20206;-76
2023/09/25 04:20:25;;;;;;;2.20;1.30;;;;;;;21.23;100.00;100489.03;5071100;28;20203;-76
2023/09/25 04:22:52;;;;;;;1.85;1.15;;;;;;;21.54;100.00;100509.47;5071214;28;20230;-75
2023/09/25 04:25:20;;;;;;;4.10;1.67;;;;;;;21.51;100.00;100518.31;5070267;28;20199;-75
2023/09/25 04:27:51;;;;;;;2.58;1.33;;;;;;;21.37;100.00;100509.84;5036129;28;20199;-75
2023/09/25 04:30:19;;;;;;;2.65;1.15;;;;;;;21.39;100.00;100499.25;5070866;28;20214;-75
2023/09/25 04:32:48;;;;;;;2.70;1.40;;;;;;;21.59;100.00;100526.06;5069516;28;20203;-75
2023/09/25 04:35:15;;;;;;;2.55;1.45;;;;;;;21.62;100.00;100518.06;5070470;28;20309;-75
2023/09/25 04:37:42;;;;;;;15.32;2.05;;;;;;;21.53;100.00;100528.84;5071099;28;20206;-76
2023/09/25 04:40:14;;;;;;;2.00;1.48;;;;;;;21.59;100.00;100529.56;5071088;28;20195;-76
2023/09/25 04:42:41;;;;;;;2.75;1.27;;;;;;;21.50;100.00;100534.19;5037087;28;20194;-76
2023/09/25 04:45:12;;;;;;;2.45;1.05;;;;;;;21.53;100.00;100523.56;5070139;28;20195;-77
2023/09/25 04:47:39;;;;;;;2.15;1.40;;;;;;;21.65;100.00;100537.34;5052557;28;20294;-74
2023/09/25 04:50:09;;;;;;;2.80;1.92;;;;;;;21.66;100.00;100538.19;5070858;28;20258;-75
2023/09/25 04:52:36;;;;;;;3.65;1.35;;;;;;;21.73;100.00;100542.44;5070831;28;20638;-76
2023/09/25 04:55:06;;;;;;;1.73;1.20;;;;;;;21.97;100.00;100541.03;5035185;28;20217;-75
2023/09/25 04:57:33;;;;;;;1.70;1.15;;;;;;;21.84;100.00;100539.53;5070882;28;20231;-76
2023/09/25 05:00:05;;;;;;;3.58;1.80;;;;;;;21.94;100.00;100536.69;5070394;28;20253;-74
2023/09/25 05:02:31;;;;;;;4.03;1.63;;;;;;;21.96;100.00;100542.81;5071024;28;20293;-75
2023/09/25 05:04:58;;;;;;;3.15;1.80;;;;;;;21.74;100.00;100523.06;5074652;28;20186;-81
2023/09/25 05:07:26;;;;;;;9.07;2.45;;;;;;;21.96;100.00;100540.19;5072199;28;20207;-81
2023/09/25 05:09:53;;;;;;;3.00;1.85;;;;;;;22.05;100.00;100544.34;5074518;28;20694;-77
2023/09/25 05:12:20;;;;;;;4.57;1.75;;;;;;;22.07;100.00;100532.00;5074132;28;20203;-79
2023/09/25 05:14:47;;;;;;;3.92;1.75;;;;;;;21.89;100.00;100549.13;5075682;28;20230;-79
2023/09/25 05:17:13;;;;;;;4.85;1.85;;;;;;;21.84;100.00;100524.56;5061892;28;20211;-77
2023/09/25 05:19:40;;;;;;;1.73;1.30;;;;;;;21.96;100.00;100555.16;5075409;28;20206;-77
2023/09/25 05:22:07;;;;;;;3.55;1.58;;;;;;;21.84;100.00;100529.84;5075730;28;20205;-79
2023/09/25 05:24:35;;;;;;;1.42;0.82;;;;;;;22.17;100.00;100560.78;5069439;28;20246;-77
2023/09/25 05:27:02;;;;;;;2.65;1.45;;;;;;;22.18;100.00;100561.66;5064635;28;20202;-76
2023/09/25 05:29:29;;;;;;;0.95;0.80;;;;;;;22.28;100.00;100562.28;5038085;28;20235;-76
2023/09/25 05:31:55;;;;;;;4.57;1.85;;;;;;;22.53;100.00;100563.38;5073912;28;20207;-74
2023/09/25 05:34:22;;;;;;;2.67;1.30;;;;;;;22.59;100.00;100558.81;5054885;28;20211;-75
2023/09/25 05:36:49;;;;;;;4.57;2.15;;;;;;;22.56;100.00;100571.22;5073572;28;20206;-75
2023/09/25 05:39:17;;;;;;;11.85;4.03;;;;;;;22.37;100.00;100567.31;5073679;28;20210;-74
2023/09/25 05:41:45;;;;;;;1.77;1.30;;;;;;;22.31;100.00;100556.91;5068286;28;20203;-73
2023/09/25 05:44:14;;;;;;;1.90;1.00;;;;;;;22.42;100.00;100581.28;5026649;28;20610;-73
2023/09/25 05:46:41;;;;;;;3.45;1.50;;;;;;;22.14;100.00;100573.19;5033289;28;20579;-76
2023/09/25 05:49:08;;;;;;;5.72;1.70;;;;;;;22.10;100.00;100574.16;5063952;28;20234;-77
2023/09/25 05:51:34;;;;;;;2.38;1.48;;;;;;;22.02;100.00;100579.63;5073361;28;20705;-77
2023/09/25 05:54:01;;;;;;;2.53;1.23;;;;;;;22.16;100.00;100574.00;5055078;28;20230;-77
2023/09/25 05:56:30;;;;;;;3.83;1.30;;;;;;;22.34;100.00;100583.25;5073803;28;20331;-77
2023/09/25 05:58:59;;;;;;;4.38;2.30;;;;;;;22.39;100.00;100562.88;5073328;28;20199;-77
2023/09/25 06:01:26;;;;;;;4.72;1.83;;;;;;;22.39;100.00;100579.59;5054674;28;20282;-77
2023/09/25 06:03:54;;;;;;;4.05;1.70;;;;;;;22.37;100.00;100577.88;5073485;28;20211;-75
2023/09/25 06:06:20;;;;;;;6.90;2.28;;;;;;;22.26;100.00;100564.94;5073348;28;20294;-77
2023/09/25 06:08:47;;;;;;;9.05;2.13;;;;;;;22.49;100.00;100586.38;5069135;28;20709;-77
2023/09/25 06:11:14;;;;;;;7.43;2.05;;;;;;;22.63;100.00;100592.19;5024915;28;20246;-80
2023/09/25 06:13:41;;;;;;;9.93;2.35;;;;;;;22.78;100.00;100596.25;5069065;28;20234;-79
2023/09/25 06:16:09;;;;;;;6.60;1.77;;;;;;;22.91;100.00;100597.63;5066229;28;20203;-79
2023/09/25 06:18:36;;;;;;;2.60;1.95;;;;;;;22.72;100.00;100609.63;5052825;28;20207;-80
2023/09/25 06:21:03;;;;;;;2.63;1.50;;;;;;;22.57;100.00;100604.69;5073040;28;20240;-80
2023/09/25 06:23:30;;;;;;;5.63;1.67;;;;;;;22.77;100.00;100614.78;5072952;28;20210;-77
2023/09/25 06:25:57;;;;;;;2.42;1.30;;;;;;;22.68;100.00;100621.19;5072737;28;20206;-77
2023/09/25 06:28:25;;;;;;;2.72;1.00;;;;;;;22.52;100.00;100618.03;5062546;28;20683;-78
2023/09/25 06:30:51;;;;;;;2.47;1.20;;;;;;;22.77;100.00;100620.94;5069309;28;20309;-76
2023/09/25 06:33:20;;;;;;;9.07;2.45;;;;;;;22.59;100.00;100594.94;5054107;28;20202;-77
2023/09/25 06:35:46;;;;;;;4.53;1.48;;;;;;;22.86;100.00;100615.41;5072398;28;20594;-76
2023/09/25 06:38:13;;;;;;;1.77;1.17;;;;;;;23.09;100.00;100618.28;5072756;28;20260;-77
2023/09/25 06:40:44;;;;;;;2.63;1.63;;;;;;;23.29;100.00;100622.19;5072409;28;20210;-76
2023/09/25 06:43:12;;;;;;;7.60;1.95;;;;;;;23.38;100.00;100629.84;5052309;28;20238;-76
2023/09/25 06:45:39;;;;;;;2.42;1.45;;;;;;;23.35;100.00;100600.81;5064984;28;20199;-76
2023/09/25 06:48:06;;;;;;;3.38;1.90;;;;;;;23.46;100.00;100627.88;5067597;28;20210;-76
2023/09/25 06:50:34;;;;;;;4.13;1.15;;;;;;;23.26;100.00;100624.91;5062933;28;20241;-75
2023/09/25 06:53:01;;;;;;;2.55;1.25;;;;;;;23.10;100.00;100616.53;5072060;28;20203;-75
2023/09/25 06:55:27;;;;;;;5.05;1.90;;;;;;;23.36;100.00;100629.03;5072023;28;20201;-75
2023/09/25 06:57:54;;;;;;;5.18;1.38;;;;;;;23.09;100.00;100628.88;5072001;28;20202;-76
2023/09/25 07:00:23;;;;;;;8.35;2.67;;;;;;;23.26;100.00;100624.91;5072114;28;20627;-75
2023/09/25 07:02:50;;;;;;;5.13;1.55;;;;;;;23.40;100.00;100597.09;5071900;28;20213;-75
2023/09/25 07:05:17;;;;;;;7.10;1.63;;;;;;;23.71;100.00;100626.25;5057669;28;20206;-76
2023/09/25 07:07:46;;;;;;;5.82;1.60;;;;;;;23.72;100.00;100624.47;5071701;28;20202;-76
2023/09/25 07:10:12;;;;;;;2.30;1.33;;;;;;;23.66;100.00;100625.50;5071804;28;20222;-77
2023/09/25 07:12:39;;;;;;;5.00;2.08;;;;;;;23.43;100.00;100631.50;5071847;28;20195;-77
2023/09/25 07:15:07;;;;;;;2.70;1.27;;;;;;;23.59;100.00;100597.47;5071978;28;20230;-76
2023/09/25 07:17:34;;;;;;;4.53;1.50;;;;;;;24.28;100.00;100641.28;5071534;28;20199;-75
2023/09/25 07:20:01;;;;;;;1.35;1.00;;;;;;;24.26;100.00;100621.91;5071804;28;20207;-77
2023/09/25 07:22:28;;;;;;;5.97;1.75;;;;;;;23.86;100.00;100633.72;5071418;28;20593;-77
2023/09/25 07:24:56;;;;;;;5.13;1.40;;;;;;;23.97;100.00;100636.91;5071502;28;20264;-76
2023/09/25 07:27:23;;;;;;;7.50;1.92;;;;;;;23.51;100.00;100599.47;5071061;28;20230;-75
2023/09/25 07:29:50;;;;;;;4.63;2.03;;;;;;;23.74;100.00;100639.38;5071478;28;20234;-76
2023/09/25 07:32:17;;;;;;;2.85;1.15;;;;;;;24.04;100.00;100638.44;5071516;28;20210;-75
2023/09/25 07:34:46;;;;;;;5.47;1.33;;;;;;;24.08;100.00;100642.72;5065108;28;20215;-76
2023/09/25 07:37:14;;;;;;;6.45;1.98;;;;;;;23.96;100.00;100618.41;5051213;28;20712;-76
2023/09/25 07:39:41;;;;;;;2.45;1.23;;;;;;;23.82;100.00;100637.38;5065516;28;20195;-75
2023/09/25 07:42:09;;;;;;;2.30;1.13;;;;;;;23.99;100.00;100619.19;5062819;28;20202;-76
2023/09/25 07:44:38;;;;;;;3.30;1.10;;;;;;;23.78;100.00;100630.44;5071594;28;20278;-77
2023/09/25 07:47:07;;;;;;;3.28;1.30;;;;;;;24.22;100.00;100642.34;5071613;28;20641;-76
2023/09/25 07:49:38;;;;;;;1.98;0.98;;;;;;;24.46;100.00;100648.63;5071726;28;20195;-77
2023/09/25 07:52:15;;;;;;;2.38;1.27;;;;;;;24.48;100.00;100634.41;5071706;28;20203;-75
2023/09/25 07:54:43;;;;;;;3.55;1.25;;;;;;;24.69;100.00;100640.75;5071625;28;20202;-76
2023/09/25 07:57:16;;;;;;;3.83;1.42;;;;;;;24.54;100.00;100630.69;5071286;28;20194;-76
2023/09/25 07:59:43;;;;;;;5.15;1.85;;;;;;;24.46;100.00;100636.25;5071298;28;20203;-76
2023/09/25 08:02:11;;;;;;;3.80;1.48;;;;;;;24.07;100.00;100638.38;5036330;28;20199;-75
2023/09/25 08:04:38;;;;;;;8.57;1.98;;;;;;;24.01;100.00;100617.34;5071408;28;20198;-76
2023/09/25 08:07:05;;;;;;;3.83;1.48;;;;;;;23.84;100.00;100624.94;5071556;28;20221;-76
2023/09/25 08:09:32;;;;;;;4.07;1.23;;;;;;;24.01;100.00;100622.63;5071340;28;20234;-75
2023/09/25 08:11:59;;;;;;;3.88;1.67;;;;;;;24.10;100.00;100558.78;5071416;28;20210;-77
2023/09/25 08:14:27;;;;;;;2.55;1.02;;;;;;;24.83;100.00;100619.97;5071222;28;20300;-76
2023/09/25 08:16:54;;;;;;;4.70;1.63;;;;;;;24.97;100.00;100625.66;5052582;28;20202;-76
2023/09/25 08:19:22;;;;;;;2.67;2.05;;;;;;;25.22;100.00;100625.63;5071259;28;20199;-76
2023/09/25 08:21:51;;;;;;;2.20;1.30;;;;;;;24.90;100.00;100626.78;5070976;28;20203;-77
2023/09/25 08:24:18;;;;;;;2.35;1.15;;;;;;;25.33;100.00;100630.59;5071061;28;20198;-74
2023/09/25 08:26:46;;;;;;;7.70;1.80;;;;;;;25.52;100.00;100624.56;5070954;28;20202;-73
2023/09/25 08:29:13;;;;;;;2.67;1.58;;;;;;;25.62;100.00;100628.59;5052457;28;20191;-76
2023/09/25 08:31:43;;;;;;;1.90;0.88;;;;;;;25.74;100.00;100627.25;5071031;28;20228;-76
2023/09/25 08:34:10;;;;;;;4.18;1.45;;;;;;;25.14;100.00;100610.00;5052723;28;20210;-75
2023/09/25 08:36:37;;;;;;;5.88;2.08;;;;;;;25.58;100.00;100607.50;5052337;28;20202;-76
2023/09/25 08:39:04;;;;;;;4.22;1.50;;;;;;;25.50;100.00;100552.00;5073756;28;20200;-76
2023/09/25 08:41:32;;;;;;;5.57;2.17;;;;;;;26.09;100.00;100628.53;5075066;28;20238;-77
2023/09/25 08:43:59;;;;;;;1.80;1.00;;;;;;;25.82;100.00;100625.19;5039977;28;20233;-73
2023/09/25 08:46:28;;;;;;;5.63;1.83;;;;;;;26.31;97.67;100617.91;5069126;28;20293;-76
2023/09/25 08:48:59;;;;;;;2.92;1.23;;;;;;;26.41;96.70;100619.25;5028887;28;20215;-75
2023/09/25 08:51:26;;;;;;;4.75;1.30;;;;;;;25.99;98.35;100619.19;5057951;28;20223;-75
2023/09/25 08:53:53;;;;;;;7.65;2.47;;;;;;;26.04;100.00;100620.72;5074268;28;20210;-75
2023/09/25 08:56:20;;;;;;;2.63;1.10;;;;;;;25.95;98.93;100621.09;5060122;28;20229;-76
2023/09/25 08:58:50;;;;;;;5.00;1.65;;;;;;;25.95;99.18;100621.09;5039237;28;20230;-74
2023/09/25 09:01:18;;;;;;;2.15;0.95;;;;;;;25.85;99.70;100616.22;5074252;28;20206;-75
2023/09/25 09:03:45;;;;;;;5.15;1.95;;;;;;;25.76;99.61;100609.44;5055689;28;20675;-76
2023/09/25 09:06:14;;;;;;;3.97;2.08;;;;;;;26.09;100.00;100623.22;5074004;28;20679;-75
2023/09/25 09:08:43;;;;;;;2.35;1.17;;;;;;;25.99;98.92;100620.06;5074109;28;20199;-76
2023/09/25 09:11:11;;;;;;;11.52;1.77;;;;;;;26.58;96.49;100622.09;5073897;28;20230;-74
2023/09/25 09:13:43;;;;;;;5.65;2.42;;;;;;;26.55;94.20;100614.22;5073998;28;20230;-75
2023/09/25 09:16:14;;;;;;;4.78;1.40;;;;;;;25.80;96.34;100530.50;5073943;28;20234;-77
2023/09/25 09:18:41;;;;;;;6.10;1.75;;;;;;;26.09;97.48;100596.63;5067245;28;20773;-75
2023/09/25 09:21:21;;;;;;;1.70;0.93;;;;;;;26.49;96.85;100623.34;5067214;28;20202;-76
2023/09/25 09:23:48;;;;;;;7.47;2.25;;;;;;;26.29;97.39;100631.28;5076630;28;20294;-74
2023/09/25 09:26:14;;;;;;;3.00;1.63;;;;;;;25.81;96.77;100538.41;5073830;28;20210;-75
2023/09/25 09:28:43;;;;;;;2.42;1.15;;;;;;;26.43;96.53;100620.94;5073798;28;20290;-75
2023/09/25 09:31:10;;;;;;;3.88;2.15;;;;;;;26.30;97.20;100616.19;5073569;28;20258;-75
2023/09/25 09:33:41;;;;;;;3.50;1.27;;;;;;;26.27;97.03;100584.41;5073688;28;20245;-75
2023/09/25 11:19:30;;;;;;;4.47;1.20;;;;;;;28.04;64.11;100561.22;5043068;28;20620;-77
2023/09/25 11:22:00;;;;;;;3.35;1.48;;;;;;;27.87;65.83;100529.19;5051751;28;20210;-78
2023/09/25 11:24:27;;;;;;;4.25;1.27;;;;;;;28.24;66.04;100556.75;5051743;28;20196;-78
2023/09/25 11:26:54;;;;;;;5.38;1.48;;;;;;;28.61;64.49;100553.09;5051782;28;20231;-77
2023/09/25 11:29:20;;;;;;;5.30;2.25;;;;;;;28.33;63.35;100554.47;5051995;28;20667;-78
2023/09/25 11:31:47;;;;;;;4.00;1.92;;;;;;;28.68;62.55;100552.69;5049734;28;20589;-78
2023/09/25 11:34:15;;;;;;;3.35;1.30;;;;;;;28.97;62.36;100554.69;5033300;28;20573;-78
2023/09/25 11:36:45;;;;;;;1.98;1.00;;;;;;;28.87;61.44;100549.91;5051854;28;20207;-77
2023/09/25 11:39:14;;;;;;;1.80;1.00;;;;;;;28.93;61.45;100552.28;5051635;28;20277;-78
2023/09/25 11:41:41;;;;;;;3.60;1.58;;;;;;;28.88;60.62;100547.19;5051567;28;20226;-79
2023/09/25 11:44:09;;;;;;;2.92;1.27;;;;;;;29.24;58.69;100546.16;5051876;28;20261;-77
2023/09/25 11:46:36;;;;;;;2.30;1.10;;;;;;;29.12;56.45;100536.13;5051767;28;20205;-78
2023/09/25 11:49:03;;;;;;;2.83;1.02;;;;;;;29.24;57.02;100543.47;5051336;28;20199;-77
2023/09/25 11:51:30;;;;;;;6.00;1.30;;;;;;;29.58;57.22;100538.00;5049617;28;20230;-77
2023/09/25 11:53:58;;;;;;;6.47;1.45;;;;;;;29.23;56.76;100513.22;5051460;28;20199;-78
2023/09/25 11:56:25;;;;;;;3.95;1.80;;;;;;;29.29;55.37;100528.06;5032669;28;20685;-79
2023/09/25 11:58:52;;;;;;;5.20;2.22;;;;;;;28.89;56.39;100530.22;5051310;28;20269;-78
2023/09/25 12:01:19;;;;;;;11.73;1.70;;;;;;;28.91;55.58;100523.00;5049555;28;20203;-78
2023/09/25 12:03:46;;;;;;;2.25;1.30;;;;;;;28.49;55.46;100426.50;5051287;28;20599;-78
2023/09/25 12:06:13;;;;;;;4.10;1.35;;;;;;;28.96;54.66;100517.41;5049278;28;20664;-78
2023/09/25 12:08:40;;;;;;;3.80;1.58;;;;;;;29.18;53.15;100522.44;5051126;28;20203;-78
2023/09/25 12:11:08;;;;;;;2.35;1.08;;;;;;;29.52;52.35;100500.94;5051393;28;20227;-78
2023/09/25 12:13:35;;;;;;;4.03;1.42;;;;;;;29.27;52.41;100522.84;5051696;28;20680;-78
2023/09/25 12:16:01;;;;;;;4.05;1.35;;;;;;;29.41;52.93;100508.69;5051099;28;20702;-76
2023/09/25 12:18:28;;;;;;;6.45;1.60;;;;;;;29.51;52.43;100491.19;5051229;28;20246;-76
2023/09/25 12:20:55;;;;;;;4.05;2.28;;;;;;;29.54;50.59;100493.69;5051067;28;20203;-77
2023/09/25 12:23:22;;;;;;;8.20;1.52;;;;;;;29.02;49.37;100488.56;5050956;28;20199;-77
2023/09/25 12:25:48;;;;;;;1.83;1.25;;;;;;;29.17;50.53;100505.56;5051363;28;20199;-72
2023/09/25 12:28:17;;;;;;;3.17;1.23;;;;;;;29.42;50.71;100494.41;5050958;28;20211;-77
2023/09/25 12:30:44;;;;;;;3.60;1.33;;;;;;;29.36;49.27;100508.13;5051357;28;20195;-78
2023/09/25 12:33:11;;;;;;;1.90;1.10;;;;;;;29.39;48.84;100502.59;5050925;28;20211;-77
2023/09/25 12:35:40;;;;;;;5.63;1.60;;;;;;;29.33;48.03;100501.09;5050929;28;20199;-76
2023/09/25 12:38:08;;;;;;;3.25;1.17;;;;;;;29.48;48.60;100500.25;5050977;28;20697;-78
2023/09/25 12:40:35;;;;;;;2.17;1.00;;;;;;;29.35;48.61;100511.72;5032518;28;20249;-78
2023/09/25 12:43:01;;;;;;;5.18;1.83;;;;;;;29.44;48.79;100498.69;5051067;28;20211;-76
2023/09/25 12:45:30;;;;;;;5.43;1.38;;;;;;;29.51;48.25;100499.22;5049058;28;20214;-78
2023/09/25 12:47:56;;;;;;;2.95;1.20;;;;;;;29.46;48.20;100495.97;5050878;28;20204;-75
2023/09/25 12:50:23;;;;;;;1.77;1.17;;;;;;;29.61;48.56;100505.75;5048939;28;20210;-77
2023/09/25 12:52:50;;;;;;;2.45;1.17;;;;;;;29.52;48.93;100495.59;5032206;28;20223;-76
2023/09/25 12:55:17;;;;;;;3.92;1.48;;;;;;;29.86;49.10;100495.41;5048821;28;20698;-75
2023/09/25 12:57:44;;;;;;;2.33;1.02;;;;;;;29.96;48.89;100501.97;5050666;28;20585;-77
2023/09/25 13:00:11;;;;;;;10.07;2.22;;;;;;;29.77;48.54;100495.94;5050770;28;20609;-75
2023/09/25 13:02:39;;;;;;;3.25;1.92;;;;;;;29.59;49.04;100493.44;5032326;28;20192;-74
2023/09/25 13:05:07;;;;;;;1.50;0.93;;;;;;;29.55;49.06;100498.09;5050546;28;20204;-75